createdAt,value
2023-04-02T00:01:44.508Z,40.33
2023-04-02T00:05:34.943Z,36.77
2023-04-02T00:08:44.888Z,40.44
2023-04-02T00:11:56.769Z,36.60
2023-04-02T00:15:05.476Z,36.69
2023-04-02T00:18:20.343Z,40.23
2023-04-02T00:21:38.793Z,41.30
2023-04-02T00:24:53.783Z,39.46
2023-04-02T00:28:06.164Z,39.52
2023-04-02T00:31:16.404Z,39.98
2023-04-02T00:34:29.124Z,39.38
2023-04-02T00:37:39.483Z,41.09
2023-04-02T00:40:50.739Z,42.45
2023-04-02T00:43:59.098Z,42.94
2023-04-02T00:47:23.304Z,44.06
2023-04-02T00:50:38.695Z,41.58
2023-04-02T00:53:50.570Z,42.32
2023-04-02T00:57:01.653Z,45.00
2023-04-02T01:00:27.045Z,45.07
2023-04-02T01:03:45.257Z,45.88
2023-04-02T01:06:53.806Z,45.86
2023-04-02T01:10:27.340Z,47.05
2023-04-02T01:13:45.437Z,47.24
2023-04-02T01:17:06.360Z,45.58
2023-04-02T01:20:55.324Z,44.40
2023-04-02T01:24:09.010Z,46.28
2023-04-02T01:27:28.996Z,47.07
2023-04-02T01:30:41.894Z,48.43
2023-04-02T01:33:48.245Z,49.18
2023-04-02T01:37:22.600Z,50.33
2023-04-02T01:40:50.789Z,50.74
2023-04-02T01:44:12.409Z,49.93
2023-04-02T01:47:32.111Z,50.02
2023-04-02T01:50:42.520Z,49.10
2023-04-02T01:53:48.770Z,47.63
2023-04-02T01:56:56.193Z,48.26
2023-04-02T02:00:20.422Z,48.70
2023-04-02T02:03:38.699Z,48.00
2023-04-02T02:06:46.406Z,48.58
2023-04-02T02:09:56.512Z,48.71
2023-04-02T02:13:09.448Z,45.85
2023-04-02T02:16:30.301Z,46.25
2023-04-02T02:19:46.607Z,46.24
2023-04-02T02:22:55.690Z,47.89
2023-04-02T02:26:02.368Z,50.30
2023-04-02T02:29:21.850Z,51.14
2023-04-02T02:32:35.385Z,48.74
2023-04-02T02:35:56.424Z,48.56
2023-04-02T02:39:27.172Z,47.55
2023-04-02T02:42:41.924Z,48.03
2023-04-02T02:45:51.994Z,47.79
2023-04-02T02:49:04.644Z,48.37
2023-04-02T02:52:22.454Z,48.52
2023-04-02T02:55:43.483Z,46.37
2023-04-02T02:58:58.431Z,45.71
2023-04-02T03:02:21.557Z,45.36
2023-04-02T03:05:31.664Z,43.29
2023-04-02T03:08:59.239Z,43.67
2023-04-02T03:12:39.047Z,40.18
2023-04-02T03:16:05.189Z,38.12
2023-04-02T03:19:31.547Z,39.04
2023-04-02T03:22:49.650Z,35.09
2023-04-02T03:26:11.764Z,32.94
2023-04-02T03:29:33.400Z,31.38
2023-04-02T03:32:46.555Z,29.47
2023-04-02T03:36:08.289Z,30.03
2023-04-02T03:39:29.339Z,29.84
2023-04-02T03:42:52.572Z,29.88
2023-04-02T03:46:21.711Z,30.51
2023-04-02T03:49:39.677Z,29.72
2023-04-02T03:52:46.622Z,30.69
2023-04-02T03:55:58.235Z,30.26
2023-04-02T03:59:25.069Z,30.59
2023-04-02T04:02:52.530Z,30.87
2023-04-02T04:06:08.040Z,30.72
2023-04-02T04:09:30.060Z,30.32
2023-04-02T04:12:43.811Z,30.00
2023-04-02T04:16:06.664Z,30.46
2023-04-02T04:19:25.656Z,28.79
2023-04-02T04:22:34.298Z,29.41
2023-04-02T04:26:05.796Z,29.15
2023-04-02T04:29:35.098Z,28.58
2023-04-02T04:32:58.753Z,28.01
2023-04-02T04:36:09.373Z,27.38
2023-04-02T04:39:30.002Z,28.56
2023-04-02T04:42:46.494Z,28.30
2023-04-02T04:46:08.701Z,28.66
2023-04-02T04:49:30.584Z,28.14
2023-04-02T04:52:42.421Z,28.45
2023-04-02T04:55:53.641Z,28.64
2023-04-02T04:59:09.491Z,29.22
2023-04-02T05:02:36.486Z,29.35
2023-04-02T05:05:50.758Z,28.29
2023-04-02T05:09:21.496Z,28.11
2023-04-02T05:12:43.336Z,27.73
2023-04-02T05:16:08.162Z,27.23
2023-04-02T05:19:26.586Z,26.07
2023-04-02T05:22:47.547Z,27.25
2023-04-02T05:26:03.122Z,28.95
2023-04-02T05:29:22.320Z,28.52
2023-04-02T05:32:39.941Z,28.31
2023-04-02T05:35:57.466Z,27.74
2023-04-02T05:39:19.329Z,28.08
2023-04-02T05:42:41.186Z,28.61
2023-04-02T05:46:01.431Z,26.86
2023-04-02T05:49:21.187Z,20.38
2023-04-02T05:52:37.371Z,14.84
2023-04-02T05:56:00.073Z,11.37
2023-04-02T05:59:25.350Z,9.18
2023-04-02T06:02:43.547Z,8.75
2023-04-02T06:05:55.497Z,8.59
2023-04-02T06:09:14.790Z,9.82
2023-04-02T06:12:38.266Z,9.76
2023-04-02T06:15:47.984Z,8.07
2023-04-02T06:19:03.076Z,8.84
2023-04-02T06:22:27.603Z,7.90
2023-04-02T06:25:45.861Z,8.06
2023-04-02T06:29:08.071Z,10.46
2023-04-02T06:32:16.186Z,11.80
2023-04-02T06:35:40.201Z,7.81
2023-04-02T06:38:50.239Z,8.45
2023-04-02T06:42:19.184Z,9.75
2023-04-02T06:46:01.181Z,10.08
2023-04-02T06:49:29.279Z,9.33
2023-04-02T06:52:49.735Z,8.19
2023-04-02T06:56:07.293Z,6.92
2023-04-02T06:59:16.002Z,6.98
2023-04-02T07:02:40.428Z,6.00
2023-04-02T07:05:53.173Z,5.27
2023-04-02T07:09:00.472Z,4.35
2023-04-02T07:12:15.786Z,4.54
2023-04-02T07:15:24.862Z,5.47
2023-04-02T07:18:36.858Z,6.02
2023-04-02T07:21:53.032Z,5.79
2023-04-02T07:25:01.090Z,6.52
2023-04-02T07:28:19.147Z,8.00
2023-04-02T07:31:32.882Z,8.99
2023-04-02T07:34:43.012Z,10.60
2023-04-02T07:37:49.286Z,10.85
2023-04-02T07:40:56.867Z,12.16
2023-04-02T07:44:03.440Z,13.95
2023-04-02T07:47:10.961Z,18.63
2023-04-02T07:50:20.124Z,22.89
2023-04-02T07:53:33.430Z,24.73
2023-04-02T07:56:40.901Z,24.61
2023-04-02T07:59:47.848Z,23.49
2023-04-02T08:02:54.905Z,23.45
2023-04-02T08:06:04.864Z,11.34
2023-04-02T08:09:11.100Z,9.68
2023-04-02T08:12:18.795Z,8.44
2023-04-02T08:15:25.031Z,8.12
2023-04-02T08:18:32.426Z,8.48
2023-04-02T08:21:41.073Z,8.08
2023-04-02T08:24:48.010Z,9.58
2023-04-02T08:27:54.504Z,7.75
2023-04-02T08:31:01.756Z,6.93
2023-04-02T08:34:09.584Z,8.51
2023-04-02T08:37:19.229Z,10.21
2023-04-02T08:40:36.673Z,13.76
2023-04-02T08:44:21.645Z,16.57
2023-04-02T08:47:43.984Z,14.94
2023-04-02T08:51:18.296Z,15.48
2023-04-02T08:54:32.853Z,17.62
2023-04-02T08:57:54.890Z,12.67
2023-04-02T09:01:09.059Z,11.99
2023-04-02T09:04:26.234Z,8.70
2023-04-02T09:07:34.185Z,8.86
2023-04-02T09:10:54.113Z,8.80
2023-04-02T09:14:08.829Z,11.15
2023-04-02T09:17:23.871Z,10.94
2023-04-02T09:20:31.764Z,11.58
2023-04-02T09:23:38.967Z,10.18
2023-04-02T09:26:47.711Z,13.64
2023-04-02T09:30:08.640Z,11.82
2023-04-02T09:33:14.899Z,13.10
2023-04-02T09:36:38.863Z,16.88
2023-04-02T09:39:45.566Z,15.18
2023-04-02T09:43:15.154Z,14.90
2023-04-02T09:46:27.714Z,14.75
2023-04-02T09:49:38.919Z,17.60
2023-04-02T09:52:45.200Z,21.58
2023-04-02T09:55:52.084Z,25.53
2023-04-02T09:59:25.357Z,24.01
2023-04-02T10:02:33.896Z,32.52
2023-04-02T10:05:41.504Z,34.02
2023-04-02T10:08:49.895Z,34.41
2023-04-02T10:12:00.592Z,36.42
2023-04-02T10:15:30.661Z,26.81
2023-04-02T10:18:54.693Z,31.42
2023-04-02T10:22:18.868Z,31.98
2023-04-02T10:25:44.387Z,30.72
2023-04-02T10:29:19.470Z,26.07
2023-04-02T10:32:40.407Z,28.30
2023-04-02T10:36:05.471Z,28.71
2023-04-02T10:39:39.571Z,31.43
2023-04-02T10:43:05.121Z,24.73
2023-04-02T10:46:31.392Z,24.10
2023-04-02T10:49:53.920Z,24.79
2023-04-02T10:53:12.452Z,23.07
2023-04-02T10:56:20.084Z,21.98
2023-04-02T10:59:40.616Z,23.10
2023-04-02T11:03:01.561Z,24.85
2023-04-02T11:06:26.198Z,25.35
2023-04-02T11:09:44.500Z,24.61
2023-04-02T11:13:02.597Z,25.27
2023-04-02T11:16:10.833Z,29.16
2023-04-02T11:19:31.539Z,28.49
2023-04-02T11:22:41.827Z,28.50
2023-04-02T11:25:50.703Z,28.61
2023-04-02T11:29:24.405Z,28.86
2023-04-02T11:32:43.521Z,30.15
2023-04-02T11:35:50.582Z,31.64
2023-04-02T11:39:04.622Z,32.30
2023-04-02T11:42:37.089Z,27.94
2023-04-02T11:45:59.950Z,28.48
2023-04-02T11:49:44.482Z,26.51
2023-04-02T11:52:57.691Z,26.41
2023-04-02T11:56:24.964Z,25.59
2023-04-02T11:59:49.271Z,24.97
2023-04-02T12:03:32.858Z,30.83
2023-04-02T12:07:02.555Z,29.17
2023-04-02T12:10:24.334Z,26.73
2023-04-02T12:13:59.097Z,29.97
2023-04-02T12:17:24.641Z,30.26
2023-04-02T12:20:36.045Z,31.06
2023-04-02T12:23:43.884Z,35.33
2023-04-02T12:26:50.145Z,29.07
2023-04-02T12:30:17.645Z,28.28
2023-04-02T12:33:37.570Z,28.29
2023-04-02T12:37:09.622Z,27.75
2023-04-02T12:40:22.686Z,24.82
2023-04-02T12:43:32.142Z,27.00
2023-04-02T12:46:43.543Z,27.39
2023-04-02T12:49:53.357Z,25.89
2023-04-02T12:53:01.284Z,24.44
2023-04-02T12:56:27.607Z,28.67
2023-04-02T12:59:39.476Z,29.85
2023-04-02T13:03:22.807Z,28.05
2023-04-02T13:06:34.369Z,31.13
2023-04-02T13:09:51.855Z,27.00
2023-04-02T13:13:01.012Z,23.23
2023-04-02T13:16:28.179Z,25.96
2023-04-02T13:19:38.067Z,30.81
2023-04-02T13:22:45.310Z,33.26
2023-04-02T13:25:52.054Z,31.91
2023-04-02T13:29:07.035Z,28.04
2023-04-02T13:32:16.784Z,26.65
2023-04-02T13:35:27.498Z,25.51
2023-04-02T13:38:38.537Z,34.02
2023-04-02T13:42:02.923Z,30.68
2023-04-02T13:45:28.505Z,28.02
2023-04-02T13:48:35.587Z,28.14
2023-04-02T13:51:49.353Z,23.30
2023-04-02T13:55:01.739Z,24.15
2023-04-02T13:58:09.172Z,23.70
2023-04-02T14:01:19.776Z,27.08
2023-04-02T14:04:35.204Z,27.69
2023-04-02T14:08:09.266Z,27.77
2023-04-02T14:11:43.165Z,25.20
2023-04-02T14:15:16.036Z,25.04
2023-04-02T14:18:58.979Z,28.30
2023-04-02T14:22:29.179Z,27.90
2023-04-02T14:25:51.671Z,23.57
2023-04-02T14:29:10.949Z,27.21
2023-04-02T14:32:29.045Z,24.52
2023-04-02T14:35:45.256Z,24.85
2023-04-02T14:39:05.212Z,26.05
2023-04-02T14:42:23.928Z,26.09
2023-04-02T14:45:52.098Z,25.19
2023-04-02T14:49:10.179Z,27.13
2023-04-02T14:52:23.094Z,28.48
2023-04-02T14:55:40.417Z,25.30
2023-04-02T14:58:58.303Z,23.16
2023-04-02T15:02:17.203Z,24.73
2023-04-02T15:05:31.277Z,23.58
2023-04-02T15:09:02.198Z,29.33
2023-04-02T15:12:26.888Z,22.79
2023-04-02T15:15:49.829Z,26.09
2023-04-02T15:19:00.330Z,25.94
2023-04-02T15:22:31.205Z,28.85
2023-04-02T15:25:51.726Z,27.93
2023-04-02T15:29:27.805Z,26.83
2023-04-02T15:32:43.804Z,25.87
2023-04-02T15:36:01.846Z,22.81
2023-04-02T15:39:48.052Z,23.73
2023-04-02T15:43:08.043Z,18.11
2023-04-02T15:46:29.463Z,20.24
2023-04-02T15:49:46.656Z,22.22
2023-04-02T15:53:11.357Z,22.87
2023-04-02T15:56:31.688Z,24.20
2023-04-02T16:00:16.155Z,22.81
2023-04-02T16:03:47.667Z,19.09
2023-04-02T16:07:33.645Z,19.98
2023-04-02T16:10:45.412Z,20.24
2023-04-02T16:13:51.791Z,15.63
2023-04-02T16:17:17.678Z,11.19
2023-04-02T16:20:34.960Z,13.09
2023-04-02T16:23:45.953Z,12.40
2023-04-02T16:27:12.014Z,12.74
2023-04-02T16:30:44.483Z,15.58
2023-04-02T16:34:06.348Z,17.85
2023-04-02T16:37:30.334Z,22.87
2023-04-02T16:41:00.495Z,19.67
2023-04-02T16:44:35.424Z,19.92
2023-04-02T16:48:03.259Z,17.28
2023-04-02T16:51:23.655Z,23.33
2023-04-02T16:54:46.801Z,22.33
2023-04-02T16:58:17.344Z,20.04
2023-04-02T17:01:39.224Z,21.52
2023-04-02T17:05:14.646Z,20.44
2023-04-02T17:08:28.287Z,21.24
2023-04-02T17:11:45.968Z,22.89
2023-04-02T17:15:02.664Z,25.85
2023-04-02T17:18:21.602Z,27.62
2023-04-02T17:21:31.012Z,23.40
2023-04-02T17:24:47.728Z,23.85
2023-04-02T17:27:59.548Z,25.74
2023-04-02T17:31:20.948Z,29.45
2023-04-02T17:34:27.138Z,29.58
2023-04-02T17:37:47.141Z,30.57
2023-04-02T17:41:05.862Z,27.24
2023-04-02T17:44:41.559Z,27.81
2023-04-02T17:48:06.162Z,27.20
2023-04-02T17:51:30.668Z,27.30
2023-04-02T17:54:56.470Z,30.91
2023-04-02T17:58:24.648Z,29.04
2023-04-02T18:01:39.869Z,29.18
2023-04-02T18:05:10.080Z,31.77
2023-04-02T18:08:29.982Z,28.24
2023-04-02T18:11:55.376Z,31.51
2023-04-02T18:15:42.980Z,33.69
2023-04-02T18:19:13.994Z,34.86
2023-04-02T18:22:37.755Z,36.04
2023-04-02T18:25:59.461Z,31.83
2023-04-02T18:29:30.422Z,28.76
2023-04-02T18:33:10.774Z,27.79
2023-04-02T18:36:28.829Z,25.30
2023-04-02T18:40:01.438Z,23.85
2023-04-02T18:43:30.946Z,22.46
2023-04-02T18:46:52.660Z,24.79
2023-04-02T18:50:20.275Z,23.34
2023-04-02T18:53:32.425Z,25.51
2023-04-02T18:56:43.395Z,21.75
2023-04-02T19:00:00.510Z,22.45
2023-04-02T19:03:22.613Z,23.96
2023-04-02T19:06:39.305Z,22.68
2023-04-02T19:09:51.018Z,23.50
2023-04-02T19:13:00.815Z,22.81
2023-04-02T19:16:43.865Z,22.23
2023-04-02T19:20:11.153Z,22.06
2023-04-02T19:23:46.868Z,26.12
2023-04-02T19:27:05.642Z,24.24
2023-04-02T19:31:01.510Z,22.18
2023-04-02T19:34:28.003Z,22.30
2023-04-02T19:37:45.128Z,21.99
2023-04-02T19:41:04.058Z,23.44
2023-04-02T19:44:14.679Z,22.34
2023-04-02T19:47:25.878Z,19.01
2023-04-02T19:50:32.686Z,18.58
2023-04-02T19:53:39.609Z,17.96
2023-04-02T19:56:45.867Z,18.22
2023-04-02T19:59:52.979Z,20.48
2023-04-02T20:03:01.782Z,21.47
2023-04-02T20:06:08.961Z,21.98
2023-04-02T20:09:15.037Z,19.35
2023-04-02T20:12:22.014Z,20.60
2023-04-02T20:15:28.179Z,19.74
2023-04-02T20:18:38.390Z,20.42
2023-04-02T20:21:44.431Z,17.77
2023-04-02T20:24:51.373Z,15.83
2023-04-02T20:27:57.445Z,17.23
2023-04-02T20:31:14.103Z,17.52
2023-04-02T20:34:22.966Z,16.18
2023-04-02T20:37:30.448Z,17.55
2023-04-02T20:40:37.176Z,17.95
2023-04-02T20:43:44.215Z,16.47
2023-04-02T20:46:50.253Z,15.97
2023-04-02T20:49:59.712Z,15.31
2023-04-02T20:53:08.600Z,14.86
2023-04-02T20:56:19.764Z,14.11
2023-04-02T20:59:25.824Z,14.86
2023-04-02T21:02:33.545Z,14.94
2023-04-02T21:05:46.763Z,15.13
2023-04-02T21:08:54.471Z,15.33
2023-04-02T21:12:00.573Z,14.63
2023-04-02T21:15:08.371Z,15.39
2023-04-02T21:18:16.538Z,14.65
2023-04-02T21:21:31.739Z,16.20
2023-04-02T21:24:37.740Z,15.05
2023-04-02T21:27:44.551Z,13.86
2023-04-02T21:30:50.616Z,13.37
2023-04-02T21:34:09.738Z,13.52
2023-04-02T21:37:21.036Z,14.18
2023-04-02T21:40:27.856Z,13.37
2023-04-02T21:43:33.810Z,13.18
2023-04-02T21:46:43.476Z,13.71
2023-04-02T21:49:49.690Z,13.05
2023-04-02T21:52:59.175Z,13.16
2023-04-02T21:56:18.746Z,13.36
2023-04-02T21:59:29.212Z,12.13
2023-04-02T22:02:38.697Z,11.52
2023-04-02T22:06:09.745Z,12.13
2023-04-02T22:09:22.062Z,11.54
2023-04-02T22:12:28.967Z,11.61
2023-04-02T22:15:35.761Z,10.29
2023-04-02T22:18:46.558Z,10.24
2023-04-02T22:21:53.417Z,10.06
2023-04-02T22:25:03.540Z,10.14
2023-04-02T22:28:09.729Z,10.35
2023-04-02T22:31:25.229Z,10.02
2023-04-02T22:34:31.639Z,9.61
2023-04-02T22:37:38.405Z,8.88
2023-04-02T22:40:47.028Z,8.97
2023-04-02T22:43:53.894Z,8.60
2023-04-02T22:46:59.865Z,8.76
2023-04-02T22:50:09.208Z,9.05
2023-04-02T22:53:17.322Z,9.65
2023-04-02T22:56:32.406Z,9.59
2023-04-02T22:59:38.562Z,10.28
2023-04-02T23:02:46.931Z,10.75
2023-04-02T23:06:08.386Z,11.67
2023-04-02T23:09:18.257Z,11.93
2023-04-02T23:12:26.985Z,12.92
2023-04-02T23:15:33.824Z,12.65
2023-04-02T23:18:41.909Z,12.76
2023-04-02T23:21:48.975Z,12.94
2023-04-02T23:24:55.022Z,13.37
2023-04-02T23:28:04.829Z,13.20
2023-04-02T23:31:16.199Z,12.75
2023-04-02T23:34:22.986Z,12.92
2023-04-02T23:37:31.652Z,12.82
2023-04-02T23:40:38.457Z,12.51
2023-04-02T23:43:47.539Z,12.90
2023-04-02T23:46:54.996Z,12.47
2023-04-02T23:50:01.174Z,12.85
2023-04-02T23:53:08.005Z,12.30
2023-04-02T23:56:14.669Z,12.84
2023-04-02T23:59:24.041Z,12.61
